Jahroma, Russia
Current Conditions -  °F | °C
As of 7:30 PM on Saturday 22 Nov 2014 (Local Time) from UUEE Reporting Station
Scattered Clouds Scattered Clouds  
Wind Chill: 21°   Ceiling: Unl
Heat Index: 27°   Visibility: 4mi
Dew Point: 19°   Wind: 4mph
Humidity: 74%   Direction: 250°WSW
Pressure: 30.39"   Gusts: NA
Location:  56.3°N, 37.48°E
Report Text: UUEE 221630Z 25002MPS 7000 SCT100 M03/M07 Q1029 7500006225120057 NOSIG
Loading
Personal Weather Stations






























Interactive Weather Map New forecast layout! Learn more

10-Day Weather Forecast

Advertisements
Track Severe Weather on mobile